Terminal Aerodrome Forecast
Issued by NWS Boston, MA

Home | Current Version | Previous Version | Text Only | Print | Product List | Glossary On
Versions: 1 2 3 4 5 6 7 8 9 10 11 12 13 14 15 16
000
FTUS41 KBOX 212340
TAFORH
TAF
KORH 212340Z 2200/2224 20007KT P6SM BKN250
     FM220600 22009KT P6SM VCSH BKN110
     FM220900 23008KT P6SM VCSH OVC030
     FM221000 24008KT P6SM OVC030
     FM221500 25006KT P6SM BKN015
     FM221700 25006KT P6SM BKN110
     FM221800 25006KT P6SM SCT250=

USA.gov is the U.S. government's official web portal to all federal, state and local government web resources and services.